sensor_id;sensor_type;location;lat;lon;timestamp;temperature;humidity
57576;DHT22;43412;-33.800;150.804;2023-03-23T00:02:26;30.00;99.20
57576;DHT22;43412;-33.800;150.804;2023-03-23T00:04:54;29.60;99.90
57576;DHT22;43412;-33.800;150.804;2023-03-23T00:07:23;29.40;99.90
57576;DHT22;43412;-33.800;150.804;2023-03-23T00:09:55;29.00;99.90
57576;DHT22;43412;-33.800;150.804;2023-03-23T00:12:27;28.60;99.90
57576;DHT22;43412;-33.800;150.804;2023-03-23T00:15:05;28.10;99.90
57576;DHT22;43412;-33.800;150.804;2023-03-23T00:17:33;27.80;99.90
57576;DHT22;43412;-33.800;150.804;2023-03-23T00:20:02;27.40;99.90
57576;DHT22;43412;-33.800;150.804;2023-03-23T00:22:32;27.20;99.90
57576;DHT22;43412;-33.800;150.804;2023-03-23T00:25:05;26.90;99.90
57576;DHT22;43412;-33.800;150.804;2023-03-23T00:27:32;26.60;99.90
57576;DHT22;43412;-33.800;150.804;2023-03-23T00:29:59;26.40;99.90
57576;DHT22;43412;-33.800;150.804;2023-03-23T00:32:27;26.20;99.90
57576;DHT22;43412;-33.800;150.804;2023-03-23T00:34:58;26.00;99.90
57576;DHT22;43412;-33.800;150.804;2023-03-23T00:37:26;25.80;99.90
57576;DHT22;43412;-33.800;150.804;2023-03-23T00:39:54;25.60;99.90
57576;DHT22;43412;-33.800;150.804;2023-03-23T00:42:24;25.50;99.90
57576;DHT22;43412;-33.800;150.804;2023-03-23T00:44:52;25.50;99.90
57576;DHT22;43412;-33.800;150.804;2023-03-23T00:47:27;25.40;99.90
57576;DHT22;43412;-33.800;150.804;2023-03-23T00:49:54;25.40;99.90
57576;DHT22;43412;-33.800;150.804;2023-03-23T00:52:22;25.30;99.90
57576;DHT22;43412;-33.800;150.804;2023-03-23T00:54:50;25.30;99.90
57576;DHT22;43412;-33.800;150.804;2023-03-23T00:57:17;25.30;99.90
57576;DHT22;43412;-33.800;150.804;2023-03-23T00:59:45;25.30;99.90
57576;DHT22;43412;-33.800;150.804;2023-03-23T01:02:12;25.40;99.90
57576;DHT22;43412;-33.800;150.804;2023-03-23T01:04:39;25.40;99.90
57576;DHT22;43412;-33.800;150.804;2023-03-23T01:07:11;25.50;99.90
57576;DHT22;43412;-33.800;150.804;2023-03-23T01:09:44;25.50;99.90
57576;DHT22;43412;-33.800;150.804;2023-03-23T01:12:12;25.60;99.90
57576;DHT22;43412;-33.800;150.804;2023-03-23T01:14:39;25.60;99.90
57576;DHT22;43412;-33.800;150.804;2023-03-23T01:17:07;25.70;99.90
57576;DHT22;43412;-33.800;150.804;2023-03-23T01:19:34;25.70;99.90
57576;DHT22;43412;-33.800;150.804;2023-03-23T01:22:01;25.80;99.90
57576;DHT22;43412;-33.800;150.804;2023-03-23T01:24:30;25.80;99.90
57576;DHT22;43412;-33.800;150.804;2023-03-23T01:26:57;25.90;99.90
57576;DHT22;43412;-33.800;150.804;2023-03-23T01:29:28;25.90;99.90
57576;DHT22;43412;-33.800;150.804;2023-03-23T01:31:55;26.00;99.90
57576;DHT22;43412;-33.800;150.804;2023-03-23T01:34:23;26.00;99.90
57576;DHT22;43412;-33.800;150.804;2023-03-23T01:36:51;26.00;99.90
57576;DHT22;43412;-33.800;150.804;2023-03-23T01:39:18;26.00;99.90
57576;DHT22;43412;-33.800;150.804;2023-03-23T01:41:46;26.00;99.90
57576;DHT22;43412;-33.800;150.804;2023-03-23T01:46:44;26.00;99.90
57576;DHT22;43412;-33.800;150.804;2023-03-23T01:49:26;26.00;99.90
57576;DHT22;43412;-33.800;150.804;2023-03-23T01:52:03;26.00;99.90
57576;DHT22;43412;-33.800;150.804;2023-03-23T01:54:32;26.10;99.90
57576;DHT22;43412;-33.800;150.804;2023-03-23T01:57:14;26.10;99.90
57576;DHT22;43412;-33.800;150.804;2023-03-23T01:59:49;26.20;99.90
57576;DHT22;43412;-33.800;150.804;2023-03-23T02:02:18;26.20;99.90
57576;DHT22;43412;-33.800;150.804;2023-03-23T02:04:47;26.30;99.90
57576;DHT22;43412;-33.800;150.804;2023-03-23T02:07:17;26.50;99.90
57576;DHT22;43412;-33.800;150.804;2023-03-23T02:09:45;26.70;99.90
57576;DHT22;43412;-33.800;150.804;2023-03-23T02:12:12;26.90;99.90
57576;DHT22;43412;-33.800;150.804;2023-03-23T02:14:39;27.30;99.90
57576;DHT22;43412;-33.800;150.804;2023-03-23T02:34:53;29.10;99.90
57576;DHT22;43412;-33.800;150.804;2023-03-23T02:37:32;29.20;99.90
57576;DHT22;43412;-33.800;150.804;2023-03-23T02:42:46;29.10;99.90
57576;DHT22;43412;-33.800;150.804;2023-03-23T02:45:15;29.00;99.90
57576;DHT22;43412;-33.800;150.804;2023-03-23T02:47:45;29.00;99.90
57576;DHT22;43412;-33.800;150.804;2023-03-23T02:50:15;29.20;99.90
57576;DHT22;43412;-33.800;150.804;2023-03-23T02:52:44;29.40;99.90
57576;DHT22;43412;-33.800;150.804;2023-03-23T02:55:14;29.40;99.90
57576;DHT22;43412;-33.800;150.804;2023-03-23T02:57:42;29.30;99.90
57576;DHT22;43412;-33.800;150.804;2023-03-23T03:00:14;29.10;99.90
57576;DHT22;43412;-33.800;150.804;2023-03-23T03:02:50;28.90;99.90
57576;DHT22;43412;-33.800;150.804;2023-03-23T03:13:47;27.80;99.90
57576;DHT22;43412;-33.800;150.804;2023-03-23T03:19:34;27.10;99.90
57576;DHT22;43412;-33.800;150.804;2023-03-23T03:21:44;26.80;99.90
57576;DHT22;43412;-33.800;150.804;2023-03-23T03:24:17;26.60;99.90
57576;DHT22;43412;-33.800;150.804;2023-03-23T03:26:47;26.30;99.90
57576;DHT22;43412;-33.800;150.804;2023-03-23T03:29:18;26.10;99.90
57576;DHT22;43412;-33.800;150.804;2023-03-23T03:31:47;25.80;99.90
57576;DHT22;43412;-33.800;150.804;2023-03-23T03:34:16;25.70;99.90
57576;DHT22;43412;-33.800;150.804;2023-03-23T03:36:45;25.60;99.90
57576;DHT22;43412;-33.800;150.804;2023-03-23T03:39:14;25.50;99.90
57576;DHT22;43412;-33.800;150.804;2023-03-23T03:41:44;25.50;99.90
57576;DHT22;43412;-33.800;150.804;2023-03-23T03:44:11;25.50;99.90
57576;DHT22;43412;-33.800;150.804;2023-03-23T03:46:39;25.70;99.90
57576;DHT22;43412;-33.800;150.804;2023-03-23T03:49:08;25.90;99.90
57576;DHT22;43412;-33.800;150.804;2023-03-23T03:51:39;26.10;99.90
57576;DHT22;43412;-33.800;150.804;2023-03-23T03:54:07;26.20;99.90
57576;DHT22;43412;-33.800;150.804;2023-03-23T03:56:34;26.40;99.90
57576;DHT22;43412;-33.800;150.804;2023-03-23T03:59:04;26.40;99.90
57576;DHT22;43412;-33.800;150.804;2023-03-23T04:01:31;26.40;99.90
57576;DHT22;43412;-33.800;150.804;2023-03-23T04:03:59;26.40;99.90
57576;DHT22;43412;-33.800;150.804;2023-03-23T04:06:27;26.30;99.90
57576;DHT22;43412;-33.800;150.804;2023-03-23T04:08:58;26.30;99.90
57576;DHT22;43412;-33.800;150.804;2023-03-23T04:11:27;26.30;99.90
57576;DHT22;43412;-33.800;150.804;2023-03-23T04:13:55;26.30;99.90
57576;DHT22;43412;-33.800;150.804;2023-03-23T04:16:22;26.40;99.90
57576;DHT22;43412;-33.800;150.804;2023-03-23T04:18:50;26.40;99.90
57576;DHT22;43412;-33.800;150.804;2023-03-23T04:21:17;26.50;99.90
57576;DHT22;43412;-33.800;150.804;2023-03-23T04:23:45;26.40;99.90
57576;DHT22;43412;-33.800;150.804;2023-03-23T04:26:12;26.40;99.90
57576;DHT22;43412;-33.800;150.804;2023-03-23T04:28:40;26.20;99.90
57576;DHT22;43412;-33.800;150.804;2023-03-23T04:31:07;26.00;99.90
57576;DHT22;43412;-33.800;150.804;2023-03-23T04:33:35;25.90;99.90
57576;DHT22;43412;-33.800;150.804;2023-03-23T04:36:03;25.70;99.90
57576;DHT22;43412;-33.800;150.804;2023-03-23T04:38:33;25.60;99.90
57576;DHT22;43412;-33.800;150.804;2023-03-23T04:41:00;25.50;99.90
57576;DHT22;43412;-33.800;150.804;2023-03-23T04:43:29;25.30;99.90
57576;DHT22;43412;-33.800;150.804;2023-03-23T04:45:58;25.20;99.90
57576;DHT22;43412;-33.800;150.804;2023-03-23T04:48:30;25.10;99.90
57576;DHT22;43412;-33.800;150.804;2023-03-23T04:51:02;25.00;99.90
57576;DHT22;43412;-33.800;150.804;2023-03-23T04:53:30;24.90;99.90
57576;DHT22;43412;-33.800;150.804;2023-03-23T04:55:58;24.80;99.90
57576;DHT22;43412;-33.800;150.804;2023-03-23T04:58:27;24.70;99.90
57576;DHT22;43412;-33.800;150.804;2023-03-23T05:00:56;24.70;99.90
57576;DHT22;43412;-33.800;150.804;2023-03-23T05:03:23;24.70;99.90
57576;DHT22;43412;-33.800;150.804;2023-03-23T05:05:51;24.80;99.90
57576;DHT22;43412;-33.800;150.804;2023-03-23T05:08:20;24.70;99.90
57576;DHT22;43412;-33.800;150.804;2023-03-23T05:10:55;24.70;99.90
57576;DHT22;43412;-33.800;150.804;2023-03-23T05:13:24;24.70;99.90
57576;DHT22;43412;-33.800;150.804;2023-03-23T05:15:51;24.50;99.90
57576;DHT22;43412;-33.800;150.804;2023-03-23T05:18:19;24.40;99.90
57576;DHT22;43412;-33.800;150.804;2023-03-23T05:20:47;24.20;99.90
57576;DHT22;43412;-33.800;150.804;2023-03-23T05:23:15;24.10;99.90
57576;DHT22;43412;-33.800;150.804;2023-03-23T05:25:43;24.10;99.90
57576;DHT22;43412;-33.800;150.804;2023-03-23T05:28:11;24.00;99.90
57576;DHT22;43412;-33.800;150.804;2023-03-23T05:30:39;23.90;99.90
57576;DHT22;43412;-33.800;150.804;2023-03-23T05:33:07;23.80;99.90
57576;DHT22;43412;-33.800;150.804;2023-03-23T05:35:34;23.80;99.90
57576;DHT22;43412;-33.800;150.804;2023-03-23T05:38:01;23.60;99.90
57576;DHT22;43412;-33.800;150.804;2023-03-23T05:40:29;23.50;99.90
57576;DHT22;43412;-33.800;150.804;2023-03-23T05:42:57;23.40;99.90
57576;DHT22;43412;-33.800;150.804;2023-03-23T05:45:25;23.30;99.90
57576;DHT22;43412;-33.800;150.804;2023-03-23T05:47:53;23.20;99.90
57576;DHT22;43412;-33.800;150.804;2023-03-23T05:50:21;23.10;99.90
57576;DHT22;43412;-33.800;150.804;2023-03-23T05:52:49;23.00;99.90
57576;DHT22;43412;-33.800;150.804;2023-03-23T05:55:17;22.90;99.90
57576;DHT22;43412;-33.800;150.804;2023-03-23T05:57:44;22.80;99.90
57576;DHT22;43412;-33.800;150.804;2023-03-23T06:00:12;22.80;99.90
57576;DHT22;43412;-33.800;150.804;2023-03-23T06:02:47;22.70;99.90
57576;DHT22;43412;-33.800;150.804;2023-03-23T06:05:15;22.70;99.90
57576;DHT22;43412;-33.800;150.804;2023-03-23T06:07:43;22.60;99.90
57576;DHT22;43412;-33.800;150.804;2023-03-23T06:10:10;22.60;99.90
57576;DHT22;43412;-33.800;150.804;2023-03-23T06:12:39;22.60;99.90
57576;DHT22;43412;-33.800;150.804;2023-03-23T06:15:07;22.80;99.90
57576;DHT22;43412;-33.800;150.804;2023-03-23T06:17:35;22.70;99.90
57576;DHT22;43412;-33.800;150.804;2023-03-23T06:20:05;22.60;99.90
57576;DHT22;43412;-33.800;150.804;2023-03-23T06:22:37;22.50;99.90
57576;DHT22;43412;-33.800;150.804;2023-03-23T06:25:06;22.40;99.90
57576;DHT22;43412;-33.800;150.804;2023-03-23T06:27:34;22.30;99.90
57576;DHT22;43412;-33.800;150.804;2023-03-23T06:30:02;22.20;99.90
57576;DHT22;43412;-33.800;150.804;2023-03-23T06:32:31;22.10;99.90
57576;DHT22;43412;-33.800;150.804;2023-03-23T06:34:59;22.00;99.90
57576;DHT22;43412;-33.800;150.804;2023-03-23T06:37:26;22.00;99.90
57576;DHT22;43412;-33.800;150.804;2023-03-23T06:39:53;21.90;99.90
57576;DHT22;43412;-33.800;150.804;2023-03-23T06:42:22;21.80;99.90
57576;DHT22;43412;-33.800;150.804;2023-03-23T06:44:53;21.80;99.90
57576;DHT22;43412;-33.800;150.804;2023-03-23T06:47:24;21.70;99.90
57576;DHT22;43412;-33.800;150.804;2023-03-23T06:49:51;21.70;99.90
57576;DHT22;43412;-33.800;150.804;2023-03-23T06:52:19;21.60;99.90
57576;DHT22;43412;-33.800;150.804;2023-03-23T06:54:46;21.50;99.90
57576;DHT22;43412;-33.800;150.804;2023-03-23T06:57:14;21.50;99.90
57576;DHT22;43412;-33.800;150.804;2023-03-23T06:59:42;21.40;99.90
57576;DHT22;43412;-33.800;150.804;2023-03-23T07:02:11;21.40;99.90
57576;DHT22;43412;-33.800;150.804;2023-03-23T07:04:39;21.30;99.90
57576;DHT22;43412;-33.800;150.804;2023-03-23T07:07:09;21.30;99.90
57576;DHT22;43412;-33.800;150.804;2023-03-23T07:09:37;21.30;99.90
57576;DHT22;43412;-33.800;150.804;2023-03-23T07:12:05;21.30;99.90
57576;DHT22;43412;-33.800;150.804;2023-03-23T07:14:34;21.20;99.90
57576;DHT22;43412;-33.800;150.804;2023-03-23T07:17:03;21.20;99.90
57576;DHT22;43412;-33.800;150.804;2023-03-23T07:19:31;21.10;99.90
57576;DHT22;43412;-33.800;150.804;2023-03-23T07:21:58;21.00;99.90
57576;DHT22;43412;-33.800;150.804;2023-03-23T07:24:26;21.00;99.90
57576;DHT22;43412;-33.800;150.804;2023-03-23T07:26:54;20.90;99.90
57576;DHT22;43412;-33.800;150.804;2023-03-23T07:29:22;20.90;99.90
57576;DHT22;43412;-33.800;150.804;2023-03-23T07:31:49;20.80;99.90
57576;DHT22;43412;-33.800;150.804;2023-03-23T07:34:19;20.70;99.90
57576;DHT22;43412;-33.800;150.804;2023-03-23T07:36:47;20.60;99.90
57576;DHT22;43412;-33.800;150.804;2023-03-23T07:39:14;20.60;99.90
57576;DHT22;43412;-33.800;150.804;2023-03-23T07:41:42;20.60;99.90
57576;DHT22;43412;-33.800;150.804;2023-03-23T07:44:09;20.50;99.90
57576;DHT22;43412;-33.800;150.804;2023-03-23T07:46:37;20.50;99.90
57576;DHT22;43412;-33.800;150.804;2023-03-23T07:49:05;20.50;99.90
57576;DHT22;43412;-33.800;150.804;2023-03-23T07:51:33;20.40;99.90
57576;DHT22;43412;-33.800;150.804;2023-03-23T07:54:01;20.50;99.90
57576;DHT22;43412;-33.800;150.804;2023-03-23T07:56:31;20.60;99.90
57576;DHT22;43412;-33.800;150.804;2023-03-23T07:58:59;20.60;99.90
57576;DHT22;43412;-33.800;150.804;2023-03-23T08:01:27;20.60;99.90
57576;DHT22;43412;-33.800;150.804;2023-03-23T08:03:54;20.60;99.90
57576;DHT22;43412;-33.800;150.804;2023-03-23T08:06:27;20.70;99.90
57576;DHT22;43412;-33.800;150.804;2023-03-23T08:08:55;20.80;99.90
57576;DHT22;43412;-33.800;150.804;2023-03-23T08:11:23;20.80;99.90
57576;DHT22;43412;-33.800;150.804;2023-03-23T08:13:50;20.70;99.90
57576;DHT22;43412;-33.800;150.804;2023-03-23T08:16:18;20.70;99.90
57576;DHT22;43412;-33.800;150.804;2023-03-23T08:18:46;20.60;99.90
57576;DHT22;43412;-33.800;150.804;2023-03-23T08:21:14;20.60;99.90
57576;DHT22;43412;-33.800;150.804;2023-03-23T08:23:41;20.60;99.90
57576;DHT22;43412;-33.800;150.804;2023-03-23T08:26:09;20.50;99.90
57576;DHT22;43412;-33.800;150.804;2023-03-23T08:28:37;20.50;99.90
57576;DHT22;43412;-33.800;150.804;2023-03-23T08:31:08;20.40;99.90
57576;DHT22;43412;-33.800;150.804;2023-03-23T08:33:37;20.30;99.90
57576;DHT22;43412;-33.800;150.804;2023-03-23T08:36:05;20.20;99.90
57576;DHT22;43412;-33.800;150.804;2023-03-23T08:38:32;20.10;99.90
57576;DHT22;43412;-33.800;150.804;2023-03-23T08:41:05;20.10;99.90
57576;DHT22;43412;-33.800;150.804;2023-03-23T08:43:33;20.00;99.90
57576;DHT22;43412;-33.800;150.804;2023-03-23T08:46:01;20.00;99.90
57576;DHT22;43412;-33.800;150.804;2023-03-23T08:48:36;20.00;99.90
57576;DHT22;43412;-33.800;150.804;2023-03-23T08:51:05;20.10;99.90
57576;DHT22;43412;-33.800;150.804;2023-03-23T08:53:33;20.20;99.90
57576;DHT22;43412;-33.800;150.804;2023-03-23T08:56:12;20.20;99.90
57576;DHT22;43412;-33.800;150.804;2023-03-23T08:58:40;20.20;99.90
57576;DHT22;43412;-33.800;150.804;2023-03-23T09:01:08;20.20;99.90
57576;DHT22;43412;-33.800;150.804;2023-03-23T09:03:37;20.10;99.90
57576;DHT22;43412;-33.800;150.804;2023-03-23T09:06:07;20.10;99.90
57576;DHT22;43412;-33.800;150.804;2023-03-23T09:08:35;20.10;99.90
57576;DHT22;43412;-33.800;150.804;2023-03-23T09:11:07;20.20;99.90
57576;DHT22;43412;-33.800;150.804;2023-03-23T09:13:37;20.20;99.90
57576;DHT22;43412;-33.800;150.804;2023-03-23T09:16:06;20.20;99.90
57576;DHT22;43412;-33.800;150.804;2023-03-23T09:18:33;20.20;99.90
57576;DHT22;43412;-33.800;150.804;2023-03-23T09:21:02;20.10;99.90
57576;DHT22;43412;-33.800;150.804;2023-03-23T09:23:30;20.00;99.90
57576;DHT22;43412;-33.800;150.804;2023-03-23T09:25:59;19.90;99.90
57576;DHT22;43412;-33.800;150.804;2023-03-23T09:28:27;19.90;99.90
57576;DHT22;43412;-33.800;150.804;2023-03-23T09:30:58;19.90;99.90
57576;DHT22;43412;-33.800;150.804;2023-03-23T09:33:25;19.90;99.90
57576;DHT22;43412;-33.800;150.804;2023-03-23T09:35:53;19.90;99.90
57576;DHT22;43412;-33.800;150.804;2023-03-23T09:38:21;19.90;99.90
57576;DHT22;43412;-33.800;150.804;2023-03-23T09:40:58;20.00;99.90
57576;DHT22;43412;-33.800;150.804;2023-03-23T09:49:21;19.90;99.90
57576;DHT22;43412;-33.800;150.804;2023-03-23T09:51:57;19.90;99.90
57576;DHT22;43412;-33.800;150.804;2023-03-23T09:54:34;19.90;99.90
57576;DHT22;43412;-33.800;150.804;2023-03-23T09:57:04;19.90;99.90
57576;DHT22;43412;-33.800;150.804;2023-03-23T10:02:34;19.90;99.90
57576;DHT22;43412;-33.800;150.804;2023-03-23T10:07:59;19.80;99.90
57576;DHT22;43412;-33.800;150.804;2023-03-23T10:10:59;19.80;99.90
57576;DHT22;43412;-33.800;150.804;2023-03-23T10:16:29;19.80;99.90
57576;DHT22;43412;-33.800;150.804;2023-03-23T10:19:15;19.80;99.90
57576;DHT22;43412;-33.800;150.804;2023-03-23T10:21:51;19.80;99.90
57576;DHT22;43412;-33.800;150.804;2023-03-23T10:24:49;19.80;99.90
57576;DHT22;43412;-33.800;150.804;2023-03-23T10:27:29;19.80;99.90
57576;DHT22;43412;-33.800;150.804;2023-03-23T10:30:17;19.70;99.90
57576;DHT22;43412;-33.800;150.804;2023-03-23T10:33:10;19.80;99.90
57576;DHT22;43412;-33.800;150.804;2023-03-23T10:38:23;19.70;99.90
57576;DHT22;43412;-33.800;150.804;2023-03-23T10:41:14;19.70;99.90
57576;DHT22;43412;-33.800;150.804;2023-03-23T10:43:43;19.70;99.90
57576;DHT22;43412;-33.800;150.804;2023-03-23T10:46:30;19.80;99.90
57576;DHT22;43412;-33.800;150.804;2023-03-23T10:49:01;19.80;99.90
57576;DHT22;43412;-33.800;150.804;2023-03-23T10:51:37;19.90;99.90
57576;DHT22;43412;-33.800;150.804;2023-03-23T10:54:06;20.10;99.90
57576;DHT22;43412;-33.800;150.804;2023-03-23T10:56:41;20.20;99.90
57576;DHT22;43412;-33.800;150.804;2023-03-23T10:59:29;20.30;99.90
57576;DHT22;43412;-33.800;150.804;2023-03-23T11:02:00;20.30;99.90
57576;DHT22;43412;-33.800;150.804;2023-03-23T11:04:30;20.30;99.90
57576;DHT22;43412;-33.800;150.804;2023-03-23T11:07:01;20.30;99.90
57576;DHT22;43412;-33.800;150.804;2023-03-23T11:09:51;20.30;99.90
57576;DHT22;43412;-33.800;150.804;2023-03-23T11:12:19;20.20;99.90
57576;DHT22;43412;-33.800;150.804;2023-03-23T11:14:47;20.20;99.90
57576;DHT22;43412;-33.800;150.804;2023-03-23T11:17:24;20.30;99.90
57576;DHT22;43412;-33.800;150.804;2023-03-23T11:19:53;20.30;99.90
57576;DHT22;43412;-33.800;150.804;2023-03-23T11:22:32;20.30;99.90
57576;DHT22;43412;-33.800;150.804;2023-03-23T11:25:05;20.20;99.90
57576;DHT22;43412;-33.800;150.804;2023-03-23T11:27:34;20.20;99.90
57576;DHT22;43412;-33.800;150.804;2023-03-23T11:30:23;20.10;99.90
57576;DHT22;43412;-33.800;150.804;2023-03-23T11:32:52;20.00;99.90
57576;DHT22;43412;-33.800;150.804;2023-03-23T11:35:27;19.90;99.90
57576;DHT22;43412;-33.800;150.804;2023-03-23T11:37:58;19.90;99.90
57576;DHT22;43412;-33.800;150.804;2023-03-23T11:40:29;19.90;99.90
57576;DHT22;43412;-33.800;150.804;2023-03-23T11:43:23;19.90;99.90
57576;DHT22;43412;-33.800;150.804;2023-03-23T11:49:15;19.90;99.90
57576;DHT22;43412;-33.800;150.804;2023-03-23T11:51:46;19.90;99.90
57576;DHT22;43412;-33.800;150.804;2023-03-23T11:56:51;19.90;99.90
57576;DHT22;43412;-33.800;150.804;2023-03-23T11:59:33;19.90;99.90
57576;DHT22;43412;-33.800;150.804;2023-03-23T12:02:36;19.80;99.90
57576;DHT22;43412;-33.800;150.804;2023-03-23T12:05:40;19.80;99.90
57576;DHT22;43412;-33.800;150.804;2023-03-23T12:11:15;19.60;99.90
57576;DHT22;43412;-33.800;150.804;2023-03-23T12:16:49;19.50;99.90
57576;DHT22;43412;-33.800;150.804;2023-03-23T12:25:05;19.30;99.90
57576;DHT22;43412;-33.800;150.804;2023-03-23T12:27:45;19.30;99.90
57576;DHT22;43412;-33.800;150.804;2023-03-23T12:30:58;19.30;99.90
57576;DHT22;43412;-33.800;150.804;2023-03-23T12:42:09;19.20;99.90
57576;DHT22;43412;-33.800;150.804;2023-03-23T12:44:53;19.10;99.90
57576;DHT22;43412;-33.800;150.804;2023-03-23T12:53:04;19.10;99.90
57576;DHT22;43412;-33.800;150.804;2023-03-23T12:58:33;19.10;99.90
57576;DHT22;43412;-33.800;150.804;2023-03-23T13:01:32;19.00;99.90
57576;DHT22;43412;-33.800;150.804;2023-03-23T13:04:17;19.00;99.90
57576;DHT22;43412;-33.800;150.804;2023-03-23T13:06:47;19.00;99.90
57576;DHT22;43412;-33.800;150.804;2023-03-23T13:11:44;19.00;99.90
57576;DHT22;43412;-33.800;150.804;2023-03-23T13:19:59;19.00;99.90
57576;DHT22;43412;-33.800;150.804;2023-03-23T13:22:36;18.90;99.90
57576;DHT22;43412;-33.800;150.804;2023-03-23T13:25:13;18.90;99.90
57576;DHT22;43412;-33.800;150.804;2023-03-23T13:27:42;18.90;99.90
57576;DHT22;43412;-33.800;150.804;2023-03-23T13:30:21;18.90;99.90
57576;DHT22;43412;-33.800;150.804;2023-03-23T13:32:52;18.90;99.90
57576;DHT22;43412;-33.800;150.804;2023-03-23T13:35:35;18.90;99.90
57576;DHT22;43412;-33.800;150.804;2023-03-23T13:38:17;18.80;99.90
57576;DHT22;43412;-33.800;150.804;2023-03-23T13:40:45;18.80;99.90
57576;DHT22;43412;-33.800;150.804;2023-03-23T13:43:13;18.70;99.90
57576;DHT22;43412;-33.800;150.804;2023-03-23T13:45:47;18.70;99.90
57576;DHT22;43412;-33.800;150.804;2023-03-23T13:51:00;18.70;99.90
57576;DHT22;43412;-33.800;150.804;2023-03-23T13:53:45;18.70;99.90
57576;DHT22;43412;-33.800;150.804;2023-03-23T13:56:32;18.70;99.90
57576;DHT22;43412;-33.800;150.804;2023-03-23T14:13:09;18.60;99.90
57576;DHT22;43412;-33.800;150.804;2023-03-23T14:15:43;18.60;99.90
57576;DHT22;43412;-33.800;150.804;2023-03-23T14:18:15;18.60;99.90
57576;DHT22;43412;-33.800;150.804;2023-03-23T14:20:46;18.50;99.90
57576;DHT22;43412;-33.800;150.804;2023-03-23T14:23:18;18.50;99.90
57576;DHT22;43412;-33.800;150.804;2023-03-23T14:25:55;18.50;99.90
57576;DHT22;43412;-33.800;150.804;2023-03-23T14:28:23;18.40;99.90
57576;DHT22;43412;-33.800;150.804;2023-03-23T14:30:53;18.40;99.90
57576;DHT22;43412;-33.800;150.804;2023-03-23T14:33:25;18.40;99.90
57576;DHT22;43412;-33.800;150.804;2023-03-23T14:35:56;18.30;99.90
57576;DHT22;43412;-33.800;150.804;2023-03-23T14:38:25;18.40;99.90
57576;DHT22;43412;-33.800;150.804;2023-03-23T14:41:04;18.30;99.90
57576;DHT22;43412;-33.800;150.804;2023-03-23T14:43:34;18.30;99.90
57576;DHT22;43412;-33.800;150.804;2023-03-23T14:46:05;18.30;99.90
57576;DHT22;43412;-33.800;150.804;2023-03-23T14:48:33;18.30;99.90
57576;DHT22;43412;-33.800;150.804;2023-03-23T14:51:03;18.20;99.90
57576;DHT22;43412;-33.800;150.804;2023-03-23T14:53:40;18.20;99.90
57576;DHT22;43412;-33.800;150.804;2023-03-23T14:56:17;18.20;99.90
57576;DHT22;43412;-33.800;150.804;2023-03-23T14:58:49;18.20;99.90
57576;DHT22;43412;-33.800;150.804;2023-03-23T15:01:24;18.20;99.90
57576;DHT22;43412;-33.800;150.804;2023-03-23T15:03:56;18.20;99.90
57576;DHT22;43412;-33.800;150.804;2023-03-23T15:06:27;18.20;99.90
57576;DHT22;43412;-33.800;150.804;2023-03-23T15:08:58;18.20;99.90
57576;DHT22;43412;-33.800;150.804;2023-03-23T15:11:32;18.20;99.90
57576;DHT22;43412;-33.800;150.804;2023-03-23T15:14:19;18.20;99.90
57576;DHT22;43412;-33.800;150.804;2023-03-23T15:16:51;18.20;99.90
57576;DHT22;43412;-33.800;150.804;2023-03-23T15:19:23;18.20;99.90
57576;DHT22;43412;-33.800;150.804;2023-03-23T15:21:54;18.20;99.90
57576;DHT22;43412;-33.800;150.804;2023-03-23T15:24:37;18.10;99.90
57576;DHT22;43412;-33.800;150.804;2023-03-23T15:27:40;18.10;99.90
57576;DHT22;43412;-33.800;150.804;2023-03-23T15:33:00;18.10;99.90
57576;DHT22;43412;-33.800;150.804;2023-03-23T15:35:32;18.10;99.90
57576;DHT22;43412;-33.800;150.804;2023-03-23T15:38:02;18.10;99.90
57576;DHT22;43412;-33.800;150.804;2023-03-23T15:40:35;18.00;99.90
57576;DHT22;43412;-33.800;150.804;2023-03-23T15:45:53;18.00;99.90
57576;DHT22;43412;-33.800;150.804;2023-03-23T15:48:23;18.00;99.90
57576;DHT22;43412;-33.800;150.804;2023-03-23T15:50:51;17.90;99.90
57576;DHT22;43412;-33.800;150.804;2023-03-23T15:53:32;17.90;99.90
57576;DHT22;43412;-33.800;150.804;2023-03-23T15:56:01;17.90;99.90
57576;DHT22;43412;-33.800;150.804;2023-03-23T15:58:30;17.90;99.90
57576;DHT22;43412;-33.800;150.804;2023-03-23T16:01:01;17.90;99.90
57576;DHT22;43412;-33.800;150.804;2023-03-23T16:03:56;17.90;99.90
57576;DHT22;43412;-33.800;150.804;2023-03-23T16:06:26;17.90;99.90
57576;DHT22;43412;-33.800;150.804;2023-03-23T16:08:54;17.90;99.90
57576;DHT22;43412;-33.800;150.804;2023-03-23T16:11:24;17.90;99.90
57576;DHT22;43412;-33.800;150.804;2023-03-23T16:13:52;18.00;99.90
57576;DHT22;43412;-33.800;150.804;2023-03-23T16:16:35;18.00;99.90
57576;DHT22;43412;-33.800;150.804;2023-03-23T16:19:04;18.00;99.90
57576;DHT22;43412;-33.800;150.804;2023-03-23T16:21:32;18.00;99.90
57576;DHT22;43412;-33.800;150.804;2023-03-23T16:23:59;18.00;99.90
57576;DHT22;43412;-33.800;150.804;2023-03-23T16:26:26;18.00;99.90
57576;DHT22;43412;-33.800;150.804;2023-03-23T16:28:54;18.00;99.90
57576;DHT22;43412;-33.800;150.804;2023-03-23T16:31:21;18.00;99.90
57576;DHT22;43412;-33.800;150.804;2023-03-23T16:33:49;18.00;99.90
57576;DHT22;43412;-33.800;150.804;2023-03-23T16:36:16;18.00;99.90
57576;DHT22;43412;-33.800;150.804;2023-03-23T16:38:43;18.00;99.90
57576;DHT22;43412;-33.800;150.804;2023-03-23T16:41:11;18.00;99.90
57576;DHT22;43412;-33.800;150.804;2023-03-23T16:43:38;18.00;99.90
57576;DHT22;43412;-33.800;150.804;2023-03-23T16:46:06;18.00;99.90
57576;DHT22;43412;-33.800;150.804;2023-03-23T16:48:33;18.00;99.90
57576;DHT22;43412;-33.800;150.804;2023-03-23T16:51:00;18.00;99.90
57576;DHT22;43412;-33.800;150.804;2023-03-23T16:53:28;18.00;99.90
57576;DHT22;43412;-33.800;150.804;2023-03-23T16:55:55;18.00;99.90
57576;DHT22;43412;-33.800;150.804;2023-03-23T16:58:23;18.00;99.90
57576;DHT22;43412;-33.800;150.804;2023-03-23T17:00:51;18.00;99.90
57576;DHT22;43412;-33.800;150.804;2023-03-23T17:03:20;18.00;99.90
57576;DHT22;43412;-33.800;150.804;2023-03-23T17:05:49;17.90;99.90
57576;DHT22;43412;-33.800;150.804;2023-03-23T17:08:18;17.90;99.90
57576;DHT22;43412;-33.800;150.804;2023-03-23T17:10:47;17.90;99.90